CheckWX is a tool to help pilots better visualize weather data.  It is not intended as a substitute for an official pre-flight weather briefing.

08:22:25 UTC

KSDL METAR
Scottsdale Airport
Scottsdale, Arizona, USA
Current

29 mins ago

KSDL 150753Z AUTO 00000KT 10SM CLR 16/03 A3011 RMK AO2 SLP178 T01560033
Observed
Nov-15 @ 07:53 UTC
Visibility
10 SM
Flight Rules
VFR
Cloud Levels
  • Clear skies
Temperature
16°C / 61°F
Dewpoint
C / 37°F
Humidity
42%
Altimeter
30.11" Hg
Pressure
1019.62 hPa
Previous

1 hour ago

KSDL 150653Z AUTO 00000KT 10SM CLR 16/04 A3011 RMK AO2 SLP179 T01560039 402720111
Observed
Nov-15 @ 06:53 UTC
Visibility
10 SM
Flight Rules
VFR
Cloud Levels
  • Clear skies
Temperature
16°C / 61°F
Dewpoint
C / 39°F
Humidity
45%
Altimeter
30.11" Hg
Pressure
1019.62 hPa
Previous

2 hours ago

KSDL 150553Z AUTO 00000KT 10SM CLR 16/04 A3011 RMK AO2 SLP180 T01560039 10261 20156 51008
Observed
Nov-15 @ 05:53 UTC
Visibility
10 SM
Flight Rules
VFR
Cloud Levels
  • Clear skies
Temperature
16°C / 61°F
Dewpoint
C / 39°F
Humidity
45%
Altimeter
30.11" Hg
Pressure
1019.62 hPa